Las Vegas, Nevada
Traffic Map
Current Weather Conditions
Las Vegas, Nevada
Few Clouds
Few Clouds
46°
Feels Like: 44°
Wind Chill: 44° Ceiling: Unl
Heat Index: 46° Visibility: 10mi
Dew Point: 29° Wind: 5mph
Humidity: 51% Direction: 200° (SSW)
Pressure: 29.85in Gusts: 0mph
Raw Report DataKLAS 230956Z 20004KT 10SM FEW120 08/M02 A2985 RMK AO2 SLP102 T00781017
Traffic Incident Summary
Active as of:
Severity:
Category:
InformationThere was an issue retrieving the traffic information for this location. Please try a different location or try again shortly.
Advertisements
Track Severe Weather on mobile